Ride Results

Gordon Williams Memorial Ride (15-11-2014)
Ride distance: 80.0 km

Outcomes - Gordon Williams Memorial Ride (15-11-2014)
Division No. of Entries Retired / DNE Completed Withdrawn Ineligible V/O Percentage Completed
HW 5 - 2 - - 3 40.00%
MW 15 - 10 2 - 3 66.67%
LW 14 - 12 1 - 1 85.71%
JN 6 - 4 1 - 1 66.67%
Totals 40 - 28 4 - 8 70.00%
Results - Gordon Williams Memorial Ride (15-11-2014)
No. Rider Horse Place Time Leg Speeds Total
Km/Hr
H/R bpm
Heavyweight
22 Helen Astell Kalody Park Celebration 1 8:17:00 9.5, 9.8 9.66 36, 47, 55 (Avg:51)
82 Mark Dunn Calypso 2 (BC) 8:26:00 10.5, 8.1 9.49 35, 46, 46 (Avg:46)
137 John Shoobridge Tex Heart Rate L2 0:00:00 14.2, 11.2 - 40, 51, 71 (Avg:61)
27 Danza Hardwicke DBH Rosco Heart Rate L1 0:00:00 11.5 - 39, 84 (Avg:84)
254 Deb Wyllie AT Dial Range Peanut Lame L1 0:00:00 9.5 - 43, 45 (Avg:45)
Middleweight
179 Debbie Grull Lauralyn Notorious 1 (BC) 5:17:00 16.0, 13.8 15.14 32, 44, 48 (Avg:46)
216 David Evelyn Kalody Park Eclipse 2 5:26:00 16.3, 12.5 14.72 38, 46, 49 (Avg:47)
99 Heather Johnson Black Heart Dashar 3 5:48:00 16.3, 10.9 13.79 44, 48, 51 (Avg:49)
136 Kaye Mitchell Beer Street Banshee 3 5:48:00 16.3, 10.9 13.79 37, 51, 55 (Avg:53)
185 Mikaela Jago Undurra Geisha 5 5:56:00 15.7, 10.8 13.48 39, 47, 58 (Avg:52)
180 Nicole Ford Highland View Piper 6 6:11:00 15.3, 10.2 12.94 34, 43, 46 (Avg:44)
219 Robert Crowe Tierview Salama 7 7:19:00 12.3, 9.1 10.93 34, 45, 53 (Avg:49)
114 Tara Nicklason Wattlelea Zaharra 7 7:19:00 12.3, 9.1 10.93 38, 45, 58 (Avg:51)
18 Blaine Astell Castlebar Dude 9 8:17:00 9.5, 9.8 9.66 33, 38, 51 (Avg:44)
262 Andrew Miles Beau 10 8:26:00 10.5, 8.1 9.49 43, 51, 60 (Avg:55)
165 Danielle Taylor Narrawa Diamond Heart Rate L2 0:00:00 11.8, 8.4 - 41, 51, 62 (Avg:56)
57 Tania Jago Undurra Max Lame L1 0:00:00 15.7 - 48, 44 (Avg:44)
21 Karen Quinn Distinctive-L-Zarin (au) Withdrawn L1 0:00:00 - - 51, 47 (Avg:47)
300 Raelene Smith Ben Lame L1 0:00:00 11.0 - 55, 50 (Avg:50)
104 Joshua Williams Cadenza Castiel Withdrawn L1 0:00:00 - - 39, 49 (Avg:49)
Lightweight
42 Dianne Walsh Razorback Silver Wings 1 (BC) 5:17:00 16.9, 12.8 15.14 34, 46, 45 (Avg:45)
150 Emily Shadbolt Tanbark Jasper 2 5:29:00 16.0, 12.6 14.59 34, 45, 54 (Avg:49)
83 Angie Clark Cameo Izaiah 3 5:49:00 14.2, 12.9 13.75 38, 48, 52 (Avg:50)
253 Kelly Woodhouse Malricia Delilah 4 5:56:00 15.7, 10.9 13.48 42, 47, 48 (Avg:47)
100 Trish Smith Anglesea Piccolo 5 6:12:00 15.3, 10.1 12.90 38, 41, 48 (Avg:44)
182 Fran Jordan Tierview Saadat 6 7:18:00 11.8, 9.7 10.96 38, 50, 56 (Avg:53)
115 Jenny Keygan Woodsong Kasanova 6 7:18:00 11.8, 9.7 10.96 30, 45, 52 (Avg:48)
228 Melissa Kelly Harmony 8 7:21:00 11.7, 9.7 10.88 36, 48, 50 (Avg:49)
298 Olivia Barnard Yondover Ridge Bee 9 7:36:00 11.9, 8.7 10.53 38, 46, 53 (Avg:49)
299 Julie Carter Kalody Park Pure Steel 10 7:53:00 11.0, 8.9 10.15 36, 40, 45 (Avg:42)
252 Christal Rizk Castlebar Khafif 11 8:17:00 9.5, 9.8 9.66 39, 49, 48 (Avg:48)
291 Kirsty Goss Highland View Barbara 12 8:27:00 9.8, 8.9 9.47 42, 46, 53 (Avg:49)
31 Brooke Brown-Cordell Spin Heart Rate L1 0:00:00 11.9 - 40, 68 (Avg:68)
90 Angela Hawks Ra-Anji Fadel Withdrawn L1 0:00:00 - - 34, 45 (Avg:45)
Junior
279 Georgia Burley Rivergum Drover 1 (BC) 7:36:00 12.2, 8.5 10.53 42, 42, 45 (Avg:43)
252a David Anderson Jnr Taju Raa Sahra 2 7:45:00 11.8, 8.4 10.32 37, 41, 50 (Avg:45)
281 Ella Carter Sadie 3 7:53:00 11.0, 8.9 10.15 34, 42, 53 (Avg:47)
209 Grace Huxtable Hampton Park Indigo 4 8:27:00 9.8, 8.9 9.47 38, 42, 49 (Avg:45)
190 Alice Mitchell Beer Street Takone Heart Rate L2 0:00:00 16.9, 12.7 - 34, 51, 62 (Avg:56)
154 Sarah Parker Diago Withdrawn L1 0:00:00 - - 38, 45 (Avg:45)